sensor_id;sensor_type;location;lat;lon;timestamp;temperature;humidity
21772;DHT22;11047;47.904;8.110;2022-09-12T00:00:14;8.90;99.90
21772;DHT22;11047;47.904;8.110;2022-09-12T00:02:41;8.90;99.90
21772;DHT22;11047;47.904;8.110;2022-09-12T00:05:08;9.10;99.90
21772;DHT22;11047;47.904;8.110;2022-09-12T00:07:35;9.50;99.90
21772;DHT22;11047;47.904;8.110;2022-09-12T00:10:02;8.90;99.90
21772;DHT22;11047;47.904;8.110;2022-09-12T00:12:29;8.90;99.90
21772;DHT22;11047;47.904;8.110;2022-09-12T00:14:56;8.90;99.90
21772;DHT22;11047;47.904;8.110;2022-09-12T00:17:24;8.90;99.90
21772;DHT22;11047;47.904;8.110;2022-09-12T00:19:51;8.90;99.90
21772;DHT22;11047;47.904;8.110;2022-09-12T00:22:18;8.80;99.90
21772;DHT22;11047;47.904;8.110;2022-09-12T00:24:45;8.90;99.90
21772;DHT22;11047;47.904;8.110;2022-09-12T00:27:11;8.90;99.90
21772;DHT22;11047;47.904;8.110;2022-09-12T00:29:38;8.80;99.90
21772;DHT22;11047;47.904;8.110;2022-09-12T00:32:05;9.00;99.90
21772;DHT22;11047;47.904;8.110;2022-09-12T00:34:33;8.80;99.90
21772;DHT22;11047;47.904;8.110;2022-09-12T00:37:02;9.00;99.90
21772;DHT22;11047;47.904;8.110;2022-09-12T00:39:29;9.20;99.90
21772;DHT22;11047;47.904;8.110;2022-09-12T00:41:55;8.80;99.90
21772;DHT22;11047;47.904;8.110;2022-09-12T00:44:53;8.70;99.90
21772;DHT22;11047;47.904;8.110;2022-09-12T00:47:23;8.90;99.90
21772;DHT22;11047;47.904;8.110;2022-09-12T00:49:56;8.60;99.90
21772;DHT22;11047;47.904;8.110;2022-09-12T00:52:28;8.60;99.90
21772;DHT22;11047;47.904;8.110;2022-09-12T00:54:58;8.60;99.90
21772;DHT22;11047;47.904;8.110;2022-09-12T00:57:30;8.60;99.90
21772;DHT22;11047;47.904;8.110;2022-09-12T01:00:01;8.60;99.90
21772;DHT22;11047;47.904;8.110;2022-09-12T01:02:30;8.60;99.90
21772;DHT22;11047;47.904;8.110;2022-09-12T01:04:59;8.50;99.90
21772;DHT22;11047;47.904;8.110;2022-09-12T01:07:26;8.60;99.90
21772;DHT22;11047;47.904;8.110;2022-09-12T01:09:54;8.50;99.90
21772;DHT22;11047;47.904;8.110;2022-09-12T01:12:21;8.50;99.90
21772;DHT22;11047;47.904;8.110;2022-09-12T01:14:48;8.40;99.90
21772;DHT22;11047;47.904;8.110;2022-09-12T01:17:15;8.30;99.90
21772;DHT22;11047;47.904;8.110;2022-09-12T01:20:02;8.30;99.90
21772;DHT22;11047;47.904;8.110;2022-09-12T01:22:52;8.80;99.90
21772;DHT22;11047;47.904;8.110;2022-09-12T01:25:27;8.30;99.90
21772;DHT22;11047;47.904;8.110;2022-09-12T01:28:21;8.20;99.90
21772;DHT22;11047;47.904;8.110;2022-09-12T01:30:54;8.20;99.90
21772;DHT22;11047;47.904;8.110;2022-09-12T01:33:38;8.20;99.90
21772;DHT22;11047;47.904;8.110;2022-09-12T01:36:26;8.10;99.90
21772;DHT22;11047;47.904;8.110;2022-09-12T01:39:00;8.20;99.90
21772;DHT22;11047;47.904;8.110;2022-09-12T01:41:31;8.10;99.90
21772;DHT22;11047;47.904;8.110;2022-09-12T01:44:04;8.10;99.90
21772;DHT22;11047;47.904;8.110;2022-09-12T01:46:42;8.10;99.90
21772;DHT22;11047;47.904;8.110;2022-09-12T01:49:16;8.10;99.90
21772;DHT22;11047;47.904;8.110;2022-09-12T01:51:47;8.10;99.90
21772;DHT22;11047;47.904;8.110;2022-09-12T01:54:20;8.10;99.90
21772;DHT22;11047;47.904;8.110;2022-09-12T01:56:52;8.10;99.90
21772;DHT22;11047;47.904;8.110;2022-09-12T01:59:23;8.00;99.90
21772;DHT22;11047;47.904;8.110;2022-09-12T02:01:57;8.00;99.90
21772;DHT22;11047;47.904;8.110;2022-09-12T02:04:28;8.00;99.90
21772;DHT22;11047;47.904;8.110;2022-09-12T02:06:58;7.90;99.90
21772;DHT22;11047;47.904;8.110;2022-09-12T02:09:28;7.90;99.90
21772;DHT22;11047;47.904;8.110;2022-09-12T02:12:00;7.90;99.90
21772;DHT22;11047;47.904;8.110;2022-09-12T02:14:32;7.90;99.90
21772;DHT22;11047;47.904;8.110;2022-09-12T02:17:07;7.80;99.90
21772;DHT22;11047;47.904;8.110;2022-09-12T02:19:38;7.80;99.90
21772;DHT22;11047;47.904;8.110;2022-09-12T02:22:11;7.70;99.90
21772;DHT22;11047;47.904;8.110;2022-09-12T02:24:43;7.70;99.90
21772;DHT22;11047;47.904;8.110;2022-09-12T02:27:14;7.70;99.90
21772;DHT22;11047;47.904;8.110;2022-09-12T02:29:42;7.60;99.90
21772;DHT22;11047;47.904;8.110;2022-09-12T02:32:15;7.70;99.90
21772;DHT22;11047;47.904;8.110;2022-09-12T02:34:51;7.60;99.90
21772;DHT22;11047;47.904;8.110;2022-09-12T02:37:30;7.60;99.90
21772;DHT22;11047;47.904;8.110;2022-09-12T02:39:59;7.40;99.90
21772;DHT22;11047;47.904;8.110;2022-09-12T02:42:26;7.40;99.90
21772;DHT22;11047;47.904;8.110;2022-09-12T02:44:54;7.40;99.90
21772;DHT22;11047;47.904;8.110;2022-09-12T02:47:27;7.40;99.90
21772;DHT22;11047;47.904;8.110;2022-09-12T02:49:57;7.40;99.90
21772;DHT22;11047;47.904;8.110;2022-09-12T02:52:25;7.40;99.90
21772;DHT22;11047;47.904;8.110;2022-09-12T02:54:54;7.40;99.90
21772;DHT22;11047;47.904;8.110;2022-09-12T02:57:21;7.40;99.90
21772;DHT22;11047;47.904;8.110;2022-09-12T02:59:49;7.40;99.90
21772;DHT22;11047;47.904;8.110;2022-09-12T03:02:25;7.30;99.90
21772;DHT22;11047;47.904;8.110;2022-09-12T03:13:52;7.30;99.90
21772;DHT22;11047;47.904;8.110;2022-09-12T03:16:32;7.10;99.90
21772;DHT22;11047;47.904;8.110;2022-09-12T03:19:11;7.10;99.90
21772;DHT22;11047;47.904;8.110;2022-09-12T03:21:50;6.60;99.90
21772;DHT22;11047;47.904;8.110;2022-09-12T03:24:23;7.10;99.90
21772;DHT22;11047;47.904;8.110;2022-09-12T03:26:55;7.40;99.90
21772;DHT22;11047;47.904;8.110;2022-09-12T03:29:25;7.10;99.90
21772;DHT22;11047;47.904;8.110;2022-09-12T03:31:55;7.40;99.90
21772;DHT22;11047;47.904;8.110;2022-09-12T03:34:26;7.10;99.90
21772;DHT22;11047;47.904;8.110;2022-09-12T03:36:54;7.00;99.90
21772;DHT22;11047;47.904;8.110;2022-09-12T03:39:23;6.90;99.90
21772;DHT22;11047;47.904;8.110;2022-09-12T03:41:51;6.80;99.90
21772;DHT22;11047;47.904;8.110;2022-09-12T03:44:18;6.90;99.90
21772;DHT22;11047;47.904;8.110;2022-09-12T03:46:48;7.80;99.90
21772;DHT22;11047;47.904;8.110;2022-09-12T03:49:16;7.70;99.90
21772;DHT22;11047;47.904;8.110;2022-09-12T03:51:44;6.90;99.90
21772;DHT22;11047;47.904;8.110;2022-09-12T03:54:11;6.80;99.90
21772;DHT22;11047;47.904;8.110;2022-09-12T03:56:41;6.90;99.90
21772;DHT22;11047;47.904;8.110;2022-09-12T03:59:20;6.90;99.90
21772;DHT22;11047;47.904;8.110;2022-09-12T04:01:47;6.80;99.90
21772;DHT22;11047;47.904;8.110;2022-09-12T04:04:14;7.50;99.90
21772;DHT22;11047;47.904;8.110;2022-09-12T04:06:41;6.80;99.90
21772;DHT22;11047;47.904;8.110;2022-09-12T04:09:13;7.10;99.90
21772;DHT22;11047;47.904;8.110;2022-09-12T04:11:40;7.40;99.90
21772;DHT22;11047;47.904;8.110;2022-09-12T04:14:07;6.80;99.90
21772;DHT22;11047;47.904;8.110;2022-09-12T04:16:34;7.00;99.90
21772;DHT22;11047;47.904;8.110;2022-09-12T04:19:01;7.50;99.90
21772;DHT22;11047;47.904;8.110;2022-09-12T04:21:28;6.80;99.90
21772;DHT22;11047;47.904;8.110;2022-09-12T04:23:55;7.80;99.90
21772;DHT22;11047;47.904;8.110;2022-09-12T04:26:24;7.00;99.90
21772;DHT22;11047;47.904;8.110;2022-09-12T04:28:53;7.00;99.90
21772;DHT22;11047;47.904;8.110;2022-09-12T04:31:23;7.70;99.90
21772;DHT22;11047;47.904;8.110;2022-09-12T04:33:53;7.80;99.90
21772;DHT22;11047;47.904;8.110;2022-09-12T04:36:20;6.30;99.90
21772;DHT22;11047;47.904;8.110;2022-09-12T04:38:48;6.70;99.90
21772;DHT22;11047;47.904;8.110;2022-09-12T04:41:17;6.70;99.90
21772;DHT22;11047;47.904;8.110;2022-09-12T04:43:50;6.70;99.90
21772;DHT22;11047;47.904;8.110;2022-09-12T04:46:17;6.70;99.90
21772;DHT22;11047;47.904;8.110;2022-09-12T04:48:47;6.50;99.90
21772;DHT22;11047;47.904;8.110;2022-09-12T04:51:16;6.80;99.90
21772;DHT22;11047;47.904;8.110;2022-09-12T04:53:48;6.70;99.90
21772;DHT22;11047;47.904;8.110;2022-09-12T04:56:16;6.70;99.90
21772;DHT22;11047;47.904;8.110;2022-09-12T04:58:43;6.80;99.90
21772;DHT22;11047;47.904;8.110;2022-09-12T05:01:19;7.60;99.90
21772;DHT22;11047;47.904;8.110;2022-09-12T05:03:51;6.70;99.90
21772;DHT22;11047;47.904;8.110;2022-09-12T05:06:20;6.80;99.90
21772;DHT22;11047;47.904;8.110;2022-09-12T05:08:47;6.70;99.90
21772;DHT22;11047;47.904;8.110;2022-09-12T05:11:18;6.60;99.90
21772;DHT22;11047;47.904;8.110;2022-09-12T05:13:50;6.60;99.90
21772;DHT22;11047;47.904;8.110;2022-09-12T05:16:20;6.50;99.90
21772;DHT22;11047;47.904;8.110;2022-09-12T05:18:47;6.60;99.90
21772;DHT22;11047;47.904;8.110;2022-09-12T05:21:16;6.60;99.90
21772;DHT22;11047;47.904;8.110;2022-09-12T05:23:43;6.60;99.90
21772;DHT22;11047;47.904;8.110;2022-09-12T05:26:13;6.70;99.90
21772;DHT22;11047;47.904;8.110;2022-09-12T05:28:40;6.70;99.90
21772;DHT22;11047;47.904;8.110;2022-09-12T05:31:11;6.80;99.90
21772;DHT22;11047;47.904;8.110;2022-09-12T05:33:43;6.70;99.90
21772;DHT22;11047;47.904;8.110;2022-09-12T05:36:12;6.70;99.90
21772;DHT22;11047;47.904;8.110;2022-09-12T05:38:39;6.80;99.90
21772;DHT22;11047;47.904;8.110;2022-09-12T05:41:07;6.70;99.90
21772;DHT22;11047;47.904;8.110;2022-09-12T05:43:35;6.80;99.90
21772;DHT22;11047;47.904;8.110;2022-09-12T05:46:03;6.80;99.90
21772;DHT22;11047;47.904;8.110;2022-09-12T05:48:36;6.80;99.90
21772;DHT22;11047;47.904;8.110;2022-09-12T05:51:09;6.90;99.90
21772;DHT22;11047;47.904;8.110;2022-09-12T05:53:37;6.90;99.90
21772;DHT22;11047;47.904;8.110;2022-09-12T05:56:07;8.00;99.90
21772;DHT22;11047;47.904;8.110;2022-09-12T05:58:35;7.10;99.90
21772;DHT22;11047;47.904;8.110;2022-09-12T06:01:08;7.20;99.90
21772;DHT22;11047;47.904;8.110;2022-09-12T06:03:38;7.40;99.90
21772;DHT22;11047;47.904;8.110;2022-09-12T06:06:08;7.30;99.90
21772;DHT22;11047;47.904;8.110;2022-09-12T06:08:44;7.30;99.90
21772;DHT22;11047;47.904;8.110;2022-09-12T06:11:13;7.40;99.90
21772;DHT22;11047;47.904;8.110;2022-09-12T06:13:41;8.40;99.90
21772;DHT22;11047;47.904;8.110;2022-09-12T06:16:10;7.80;99.90
21772;DHT22;11047;47.904;8.110;2022-09-12T06:18:39;7.80;99.90
21772;DHT22;11047;47.904;8.110;2022-09-12T06:21:08;7.90;99.90
21772;DHT22;11047;47.904;8.110;2022-09-12T06:23:38;7.90;99.90
21772;DHT22;11047;47.904;8.110;2022-09-12T06:26:08;7.40;99.90
21772;DHT22;11047;47.904;8.110;2022-09-12T06:28:39;8.70;99.90
21772;DHT22;11047;47.904;8.110;2022-09-12T06:31:09;8.10;99.90
21772;DHT22;11047;47.904;8.110;2022-09-12T06:33:38;8.20;99.90
21772;DHT22;11047;47.904;8.110;2022-09-12T06:36:09;8.40;99.90
21772;DHT22;11047;47.904;8.110;2022-09-12T06:38:37;8.40;99.90
21772;DHT22;11047;47.904;8.110;2022-09-12T06:41:04;8.20;99.90
21772;DHT22;11047;47.904;8.110;2022-09-12T06:43:33;8.70;99.90
21772;DHT22;11047;47.904;8.110;2022-09-12T06:46:00;8.80;99.90
21772;DHT22;11047;47.904;8.110;2022-09-12T06:48:28;8.70;99.90
21772;DHT22;11047;47.904;8.110;2022-09-12T06:50:56;8.80;99.90
21772;DHT22;11047;47.904;8.110;2022-09-12T06:53:29;8.80;99.90
21772;DHT22;11047;47.904;8.110;2022-09-12T06:55:58;8.90;99.90
21772;DHT22;11047;47.904;8.110;2022-09-12T06:58:27;9.00;99.90
21772;DHT22;11047;47.904;8.110;2022-09-12T07:01:00;9.00;99.90
21772;DHT22;11047;47.904;8.110;2022-09-12T07:03:28;9.00;99.90
21772;DHT22;11047;47.904;8.110;2022-09-12T07:05:55;9.10;99.90
21772;DHT22;11047;47.904;8.110;2022-09-12T07:08:22;9.50;99.90
21772;DHT22;11047;47.904;8.110;2022-09-12T07:10:50;9.00;99.90
21772;DHT22;11047;47.904;8.110;2022-09-12T07:13:17;9.10;99.90
21772;DHT22;11047;47.904;8.110;2022-09-12T07:15:44;9.20;99.90
21772;DHT22;11047;47.904;8.110;2022-09-12T07:18:13;9.30;99.90
21772;DHT22;11047;47.904;8.110;2022-09-12T07:20:42;9.40;99.90
21772;DHT22;11047;47.904;8.110;2022-09-12T07:23:09;9.50;99.90
21772;DHT22;11047;47.904;8.110;2022-09-12T07:25:36;9.60;99.90
21772;DHT22;11047;47.904;8.110;2022-09-12T07:28:10;9.60;99.90
21772;DHT22;11047;47.904;8.110;2022-09-12T07:30:37;9.70;99.90
21772;DHT22;11047;47.904;8.110;2022-09-12T07:33:04;9.80;99.90
21772;DHT22;11047;47.904;8.110;2022-09-12T07:35:32;10.00;99.90
21772;DHT22;11047;47.904;8.110;2022-09-12T07:38:01;10.30;99.90
21772;DHT22;11047;47.904;8.110;2022-09-12T07:40:28;10.50;99.90
21772;DHT22;11047;47.904;8.110;2022-09-12T07:42:55;10.60;99.90
21772;DHT22;11047;47.904;8.110;2022-09-12T07:45:24;10.80;99.90
21772;DHT22;11047;47.904;8.110;2022-09-12T07:47:52;10.90;99.90
21772;DHT22;11047;47.904;8.110;2022-09-12T07:50:19;11.40;99.90
21772;DHT22;11047;47.904;8.110;2022-09-12T07:52:52;12.20;99.90
21772;DHT22;11047;47.904;8.110;2022-09-12T07:55:19;12.70;99.90
21772;DHT22;11047;47.904;8.110;2022-09-12T07:57:52;13.10;99.90
21772;DHT22;11047;47.904;8.110;2022-09-12T08:00:20;13.30;99.90
21772;DHT22;11047;47.904;8.110;2022-09-12T08:02:51;13.80;99.90
21772;DHT22;11047;47.904;8.110;2022-09-12T08:05:18;14.20;99.90
21772;DHT22;11047;47.904;8.110;2022-09-12T08:07:46;16.40;99.90
21772;DHT22;11047;47.904;8.110;2022-09-12T08:10:14;20.40;99.90
21772;DHT22;11047;47.904;8.110;2022-09-12T08:12:41;23.50;99.90
21772;DHT22;11047;47.904;8.110;2022-09-12T08:15:20;25.60;99.90
21772;DHT22;11047;47.904;8.110;2022-09-12T08:17:51;27.10;99.90
21772;DHT22;11047;47.904;8.110;2022-09-12T08:20:18;28.20;99.90
21772;DHT22;11047;47.904;8.110;2022-09-12T08:22:45;28.60;99.90
21772;DHT22;11047;47.904;8.110;2022-09-12T08:25:14;29.20;99.90
21772;DHT22;11047;47.904;8.110;2022-09-12T08:27:41;28.20;99.90
21772;DHT22;11047;47.904;8.110;2022-09-12T08:30:13;26.50;99.90
21772;DHT22;11047;47.904;8.110;2022-09-12T08:32:45;24.70;99.90
21772;DHT22;11047;47.904;8.110;2022-09-12T08:35:17;23.20;99.90
21772;DHT22;11047;47.904;8.110;2022-09-12T08:37:44;22.00;99.90
21772;DHT22;11047;47.904;8.110;2022-09-12T08:40:14;21.40;99.90
21772;DHT22;11047;47.904;8.110;2022-09-12T08:42:57;20.80;99.90
21772;DHT22;11047;47.904;8.110;2022-09-12T08:45:34;20.60;99.90
21772;DHT22;11047;47.904;8.110;2022-09-12T08:50:53;20.30;99.90
21772;DHT22;11047;47.904;8.110;2022-09-12T08:53:22;20.30;99.90
21772;DHT22;11047;47.904;8.110;2022-09-12T08:55:55;20.50;99.90
21772;DHT22;11047;47.904;8.110;2022-09-12T08:58:24;20.30;99.90
21772;DHT22;11047;47.904;8.110;2022-09-12T09:00:57;20.40;99.90
21772;DHT22;11047;47.904;8.110;2022-09-12T09:03:51;20.40;99.90
21772;DHT22;11047;47.904;8.110;2022-09-12T09:06:39;20.70;99.90
21772;DHT22;11047;47.904;8.110;2022-09-12T09:09:14;20.70;99.90
21772;DHT22;11047;47.904;8.110;2022-09-12T09:11:55;20.70;99.90
21772;DHT22;11047;47.904;8.110;2022-09-12T09:15:02;20.80;99.90
21772;DHT22;11047;47.904;8.110;2022-09-12T09:34:21;21.60;99.90
21772;DHT22;11047;47.904;8.110;2022-09-12T09:38:52;22.10;99.90
21772;DHT22;11047;47.904;8.110;2022-09-12T09:59:06;22.10;99.90
21772;DHT22;11047;47.904;8.110;2022-09-12T10:05:29;23.10;99.90
21772;DHT22;11047;47.904;8.110;2022-09-12T10:08:33;23.00;99.90
21772;DHT22;11047;47.904;8.110;2022-09-12T10:11:28;23.00;99.90
21772;DHT22;11047;47.904;8.110;2022-09-12T10:14:25;23.20;99.90
21772;DHT22;11047;47.904;8.110;2022-09-12T10:19:45;23.10;99.90
21772;DHT22;11047;47.904;8.110;2022-09-12T10:21:19;22.80;99.90
21772;DHT22;11047;47.904;8.110;2022-09-12T10:26:56;22.90;99.90
21772;DHT22;11047;47.904;8.110;2022-09-12T10:30:05;22.90;99.90
21772;DHT22;11047;47.904;8.110;2022-09-12T10:32:40;23.00;99.90
21772;DHT22;11047;47.904;8.110;2022-09-12T10:35:43;23.00;99.90
21772;DHT22;11047;47.904;8.110;2022-09-12T10:38:31;22.40;99.90
21772;DHT22;11047;47.904;8.110;2022-09-12T10:41:23;22.90;99.90
21772;DHT22;11047;47.904;8.110;2022-09-12T10:44:22;23.00;99.90
21772;DHT22;11047;47.904;8.110;2022-09-12T10:47:44;23.10;99.90
21772;DHT22;11047;47.904;8.110;2022-09-12T10:53:43;23.70;99.90
21772;DHT22;11047;47.904;8.110;2022-09-12T10:56:56;23.80;99.90
21772;DHT22;11047;47.904;8.110;2022-09-12T11:00:11;24.00;99.90
21772;DHT22;11047;47.904;8.110;2022-09-12T11:10:05;24.30;99.90
21772;DHT22;11047;47.904;8.110;2022-09-12T11:13:16;24.20;99.90
21772;DHT22;11047;47.904;8.110;2022-09-12T11:16:30;24.20;99.90
21772;DHT22;11047;47.904;8.110;2022-09-12T11:19:58;24.10;99.90
21772;DHT22;11047;47.904;8.110;2022-09-12T11:29:56;23.80;99.90
21772;DHT22;11047;47.904;8.110;2022-09-12T11:33:15;24.10;99.90
21772;DHT22;11047;47.904;8.110;2022-09-12T11:36:04;24.50;99.90
21772;DHT22;11047;47.904;8.110;2022-09-12T11:42:39;24.40;99.90
21772;DHT22;11047;47.904;8.110;2022-09-12T11:49:12;24.40;99.90
21772;DHT22;11047;47.904;8.110;2022-09-12T11:52:14;24.40;99.90
21772;DHT22;11047;47.904;8.110;2022-09-12T11:55:41;24.00;99.90
21772;DHT22;11047;47.904;8.110;2022-09-12T11:58:28;24.20;99.90
21772;DHT22;11047;47.904;8.110;2022-09-12T12:01:16;24.10;99.90
21772;DHT22;11047;47.904;8.110;2022-09-12T12:04:05;24.20;99.90
21772;DHT22;11047;47.904;8.110;2022-09-12T12:10:36;24.30;99.90
21772;DHT22;11047;47.904;8.110;2022-09-12T12:13:48;24.50;99.90
21772;DHT22;11047;47.904;8.110;2022-09-12T12:19:36;24.10;99.90
21772;DHT22;11047;47.904;8.110;2022-09-12T12:22:17;24.20;99.90
21772;DHT22;11047;47.904;8.110;2022-09-12T12:25:04;24.00;99.90
21772;DHT22;11047;47.904;8.110;2022-09-12T12:28:10;23.80;99.90
21772;DHT22;11047;47.904;8.110;2022-09-12T12:31:04;23.90;99.90
21772;DHT22;11047;47.904;8.110;2022-09-12T12:36:52;24.00;99.90
21772;DHT22;11047;47.904;8.110;2022-09-12T12:43:13;24.20;99.90
21772;DHT22;11047;47.904;8.110;2022-09-12T12:46:05;24.10;99.90
21772;DHT22;11047;47.904;8.110;2022-09-12T12:52:43;24.40;99.90
21772;DHT22;11047;47.904;8.110;2022-09-12T12:55:25;24.20;99.90
21772;DHT22;11047;47.904;8.110;2022-09-12T12:58:25;24.20;99.90
21772;DHT22;11047;47.904;8.110;2022-09-12T13:01:35;24.20;99.90
21772;DHT22;11047;47.904;8.110;2022-09-12T13:07:05;24.30;99.90
21772;DHT22;11047;47.904;8.110;2022-09-12T13:09:53;24.40;99.90
21772;DHT22;11047;47.904;8.110;2022-09-12T13:12:48;24.20;99.90
21772;DHT22;11047;47.904;8.110;2022-09-12T13:15:57;24.30;99.90
21772;DHT22;11047;47.904;8.110;2022-09-12T13:23:36;24.30;99.90
21772;DHT22;11047;47.904;8.110;2022-09-12T13:26:10;24.20;99.90
21772;DHT22;11047;47.904;8.110;2022-09-12T13:28:37;24.20;99.90
21772;DHT22;11047;47.904;8.110;2022-09-12T13:31:13;24.20;99.90
21772;DHT22;11047;47.904;8.110;2022-09-12T13:33:45;23.60;99.90
21772;DHT22;11047;47.904;8.110;2022-09-12T13:36:41;23.80;99.90
21772;DHT22;11047;47.904;8.110;2022-09-12T13:39:16;23.50;99.90
21772;DHT22;11047;47.904;8.110;2022-09-12T13:42:02;23.80;99.90
21772;DHT22;11047;47.904;8.110;2022-09-12T13:44:40;23.90;99.90
21772;DHT22;11047;47.904;8.110;2022-09-12T13:47:13;24.20;99.90
21772;DHT22;11047;47.904;8.110;2022-09-12T13:49:42;24.10;99.90
21772;DHT22;11047;47.904;8.110;2022-09-12T13:52:16;23.90;99.90
21772;DHT22;11047;47.904;8.110;2022-09-12T13:54:47;23.90;99.90
21772;DHT22;11047;47.904;8.110;2022-09-12T13:57:31;23.70;99.90
21772;DHT22;11047;47.904;8.110;2022-09-12T13:59:59;23.50;99.90
21772;DHT22;11047;47.904;8.110;2022-09-12T14:02:28;23.50;99.90
21772;DHT22;11047;47.904;8.110;2022-09-12T14:04:56;23.40;99.90
21772;DHT22;11047;47.904;8.110;2022-09-12T14:07:42;23.40;99.90
21772;DHT22;11047;47.904;8.110;2022-09-12T14:10:20;23.50;99.90
21772;DHT22;11047;47.904;8.110;2022-09-12T14:12:51;23.40;99.90
21772;DHT22;11047;47.904;8.110;2022-09-12T14:15:20;23.30;99.90
21772;DHT22;11047;47.904;8.110;2022-09-12T14:17:52;23.20;99.90
21772;DHT22;11047;47.904;8.110;2022-09-12T14:20:20;23.10;99.90
21772;DHT22;11047;47.904;8.110;2022-09-12T14:22:49;23.10;99.90
21772;DHT22;11047;47.904;8.110;2022-09-12T14:25:18;23.00;99.90
21772;DHT22;11047;47.904;8.110;2022-09-12T14:27:46;22.90;99.90
21772;DHT22;11047;47.904;8.110;2022-09-12T14:30:22;23.00;99.90
21772;DHT22;11047;47.904;8.110;2022-09-12T14:33:14;23.10;99.90
21772;DHT22;11047;47.904;8.110;2022-09-12T14:35:43;23.00;99.90
21772;DHT22;11047;47.904;8.110;2022-09-12T14:38:19;23.10;99.90
21772;DHT22;11047;47.904;8.110;2022-09-12T14:40:48;23.10;99.90
21772;DHT22;11047;47.904;8.110;2022-09-12T14:43:20;22.90;99.90
21772;DHT22;11047;47.904;8.110;2022-09-12T14:45:55;22.90;99.90
21772;DHT22;11047;47.904;8.110;2022-09-12T14:48:24;22.80;99.90
21772;DHT22;11047;47.904;8.110;2022-09-12T14:50:52;22.90;99.90
21772;DHT22;11047;47.904;8.110;2022-09-12T14:53:23;22.80;99.90
21772;DHT22;11047;47.904;8.110;2022-09-12T14:55:52;22.80;99.90
21772;DHT22;11047;47.904;8.110;2022-09-12T14:58:26;22.90;99.90
21772;DHT22;11047;47.904;8.110;2022-09-12T15:00:57;22.80;99.90
21772;DHT22;11047;47.904;8.110;2022-09-12T15:03:31;22.80;99.90
21772;DHT22;11047;47.904;8.110;2022-09-12T15:06:38;22.70;99.90
21772;DHT22;11047;47.904;8.110;2022-09-12T15:09:12;22.60;99.90
21772;DHT22;11047;47.904;8.110;2022-09-12T15:21:02;22.50;99.90
21772;DHT22;11047;47.904;8.110;2022-09-12T15:26:39;22.60;99.90
21772;DHT22;11047;47.904;8.110;2022-09-12T15:29:24;22.00;99.90
21772;DHT22;11047;47.904;8.110;2022-09-12T15:35:07;22.30;99.90
21772;DHT22;11047;47.904;8.110;2022-09-12T15:37:55;22.20;99.90
21772;DHT22;11047;47.904;8.110;2022-09-12T15:40:52;22.20;99.90
21772;DHT22;11047;47.904;8.110;2022-09-12T15:43:59;21.90;99.90
21772;DHT22;11047;47.904;8.110;2022-09-12T15:46:57;22.10;99.90
21772;DHT22;11047;47.904;8.110;2022-09-12T15:49:52;22.10;99.90
21772;DHT22;11047;47.904;8.110;2022-09-12T15:52:45;22.50;99.90
21772;DHT22;11047;47.904;8.110;2022-09-12T15:55:46;21.90;99.90
21772;DHT22;11047;47.904;8.110;2022-09-12T16:02:35;21.80;99.90
21772;DHT22;11047;47.904;8.110;2022-09-12T16:06:21;21.60;99.90
21772;DHT22;11047;47.904;8.110;2022-09-12T16:09:08;21.10;99.90
21772;DHT22;11047;47.904;8.110;2022-09-12T16:12:15;21.30;99.90
21772;DHT22;11047;47.904;8.110;2022-09-12T16:15:49;21.40;99.90
21772;DHT22;11047;47.904;8.110;2022-09-12T16:19:06;21.30;99.90
21772;DHT22;11047;47.904;8.110;2022-09-12T16:21:56;21.40;99.90
21772;DHT22;11047;47.904;8.110;2022-09-12T16:31:38;21.40;99.90
21772;DHT22;11047;47.904;8.110;2022-09-12T16:35:05;21.20;99.90
21772;DHT22;11047;47.904;8.110;2022-09-12T16:44:46;21.20;99.90
21772;DHT22;11047;47.904;8.110;2022-09-12T16:47:48;20.80;99.90
21772;DHT22;11047;47.904;8.110;2022-09-12T16:50:42;21.30;99.90
21772;DHT22;11047;47.904;8.110;2022-09-12T16:53:45;21.10;99.90
21772;DHT22;11047;47.904;8.110;2022-09-12T16:59:58;21.10;99.90
21772;DHT22;11047;47.904;8.110;2022-09-12T17:02:55;21.00;99.90
21772;DHT22;11047;47.904;8.110;2022-09-12T17:06:10;20.80;99.90
21772;DHT22;11047;47.904;8.110;2022-09-12T17:09:10;20.70;99.90
21772;DHT22;11047;47.904;8.110;2022-09-12T17:15:46;20.50;99.90
21772;DHT22;11047;47.904;8.110;2022-09-12T17:18:18;20.40;99.90
21772;DHT22;11047;47.904;8.110;2022-09-12T17:24:37;20.10;99.90
21772;DHT22;11047;47.904;8.110;2022-09-12T17:27:09;20.20;99.90
21772;DHT22;11047;47.904;8.110;2022-09-12T17:30:18;19.70;99.90
21772;DHT22;11047;47.904;8.110;2022-09-12T17:36:32;19.30;99.90
21772;DHT22;11047;47.904;8.110;2022-09-12T17:39:40;19.10;99.90
21772;DHT22;11047;47.904;8.110;2022-09-12T17:42:08;18.80;99.90
21772;DHT22;11047;47.904;8.110;2022-09-12T17:44:41;18.70;99.90
21772;DHT22;11047;47.904;8.110;2022-09-12T17:47:27;18.50;99.90
21772;DHT22;11047;47.904;8.110;2022-09-12T17:49:57;18.50;99.90
21772;DHT22;11047;47.904;8.110;2022-09-12T17:52:27;18.20;99.90
21772;DHT22;11047;47.904;8.110;2022-09-12T17:54:55;18.10;99.90
21772;DHT22;11047;47.904;8.110;2022-09-12T17:57:22;18.00;99.90
21772;DHT22;11047;47.904;8.110;2022-09-12T18:00:01;17.90;99.90
21772;DHT22;11047;47.904;8.110;2022-09-12T18:02:29;17.80;99.90
21772;DHT22;11047;47.904;8.110;2022-09-12T18:05:06;17.60;99.90
21772;DHT22;11047;47.904;8.110;2022-09-12T18:08:22;17.40;99.90
21772;DHT22;11047;47.904;8.110;2022-09-12T18:11:04;16.70;99.90
21772;DHT22;11047;47.904;8.110;2022-09-12T18:13:32;17.20;99.90
21772;DHT22;11047;47.904;8.110;2022-09-12T18:19:13;16.90;99.90
21772;DHT22;11047;47.904;8.110;2022-09-12T18:22:04;16.70;99.90
21772;DHT22;11047;47.904;8.110;2022-09-12T18:24:32;16.50;99.90
21772;DHT22;11047;47.904;8.110;2022-09-12T18:27:09;16.40;99.90
21772;DHT22;11047;47.904;8.110;2022-09-12T18:29:38;16.20;99.90
21772;DHT22;11047;47.904;8.110;2022-09-12T18:32:07;16.10;99.90
21772;DHT22;11047;47.904;8.110;2022-09-12T18:34:41;16.10;99.90
21772;DHT22;11047;47.904;8.110;2022-09-12T18:37:08;16.10;99.90
21772;DHT22;11047;47.904;8.110;2022-09-12T18:39:38;16.10;99.90
21772;DHT22;11047;47.904;8.110;2022-09-12T18:42:11;16.00;99.90
21772;DHT22;11047;47.904;8.110;2022-09-12T18:44:38;15.90;99.90
21772;DHT22;11047;47.904;8.110;2022-09-12T18:47:05;15.80;99.90
21772;DHT22;11047;47.904;8.110;2022-09-12T18:49:50;15.70;99.90
21772;DHT22;11047;47.904;8.110;2022-09-12T18:52:31;15.60;99.90
21772;DHT22;11047;47.904;8.110;2022-09-12T18:55:06;15.20;99.90
21772;DHT22;11047;47.904;8.110;2022-09-12T18:57:49;15.00;99.90
21772;DHT22;11047;47.904;8.110;2022-09-12T19:00:57;14.80;99.90
21772;DHT22;11047;47.904;8.110;2022-09-12T19:03:24;14.70;99.90
21772;DHT22;11047;47.904;8.110;2022-09-12T19:06:05;14.70;99.90
21772;DHT22;11047;47.904;8.110;2022-09-12T19:35:16;14.00;99.90
21772;DHT22;11047;47.904;8.110;2022-09-12T19:37:43;14.10;99.90
21772;DHT22;11047;47.904;8.110;2022-09-12T19:40:11;14.00;99.90
21772;DHT22;11047;47.904;8.110;2022-09-12T19:42:39;13.80;99.90